Curtis, AR (71728)

05:27 CDT le 30 août 2014 (GMT -0500)
Gurdon, AR | Change Station
CLOSE
Current Station
Stations météorologiques personnelles
Location: Gurdon, AR
Altitude: 210 ft
Stations météo à proximité

Alt. 210 ft 33.92 °N, 93.15 °W | Updated 3 minutes ago

Nuageux
Nuageux
74.8 ° F
Paraît 75 ° F
N
0.0
Vent Variable Vent de ONO

Aujourd'hui
Haut(e) -- | Bas -- ° F
--% Risque de précip.
Hier
Haut(e) -- | Bas -- ° F
Precip. -- pouce
6:44 AM 7:40 PM
Lune montante, 21% visible
Pression 30.02 pouce
Visibilité 8.0 Miles terrestres
Nuages Ciel dégagé
indice de chaleur 75 ° F
Point de rosée 70 ° F
Humidité 85%
Précipitations 0.00 pouce
Profondeur de la couche neigeuse Non disponible.
UV 0 sur 12
Pollen 10.10 sur 12
Qualité de l'air Non disponible.
Flu Activity Non disponible.
METAR KADF 300956Z AUTO 00000KT 8SM CLR 24/24 A2999 RMK AO2 T02440238 SLP166 $

More Conditions Fewer Conditions

Pression 30.02 pouce
Visibilité 8.0 Miles terrestres
Nuages Ciel dégagé
indice de chaleur 75 ° F
Point de rosée 70 ° F
Humidité 85%
Précipitations 0.00 pouce
Profondeur de la couche neigeuse Non disponible.
UV 0 sur 12
Pollen 10.10 sur 12
Qualité de l'air Non disponible.
Flu Activity Non disponible.
METAR KADF 300956Z AUTO 00000KT 8SM CLR 24/24 A2999 RMK AO2 T02440238 SLP166 $

More Conditions Fewer Conditions

10-Day Weather Forecast

Almanac

Astronomie

Aug. 30, 2014 Lever Coucher
Temps réel 06:44 CDT 19:40 CDT
Crépuscule civil 06:19 CDT 20:06 CDT
Crépuscule nautique 05:48 CDT 20:36 CDT
Crépuscule astronomique 05:17 CDT 21:07 CDT
Lune 11:18 CDT 22:30 CDT
Durée de lumière visible 13h 47m
Longueur du jour
12h 56m
Tomorrow will be 2m 1s shorter.
Lune montante, 21% of the Moon is Illuminated
Aujourd'hui
Lune montante
Sep 2
Premier quartier
Sep 8
Pleine lune
Sep 15
Dernier quartier
Sep 24
Nouveau

Extrêmes aujourd'hui

State Highs State Lows

Community

WunderPhotos

Upload Photos

1,748,482 Photos téléchargées !

Nearby

Épaisseur de neige

Station Depth Altitude
Pas de nouvelles chutes de neige

Activité sismique

Ville Distance Mag. Time & Date
No recent earthquake activity has been reported nearby.
Minimum magnitude displayed is 2.5.

Températures des eaux côtières

Lieu Température
Aucun rapport de station

Stations météo à proximité